sensor_id;sensor_type;location;lat;lon;timestamp;temperature;humidity
38514;DHT22;24282;48.400;10.808;2024-02-15T00:00:28;8.00;83.50
38514;DHT22;24282;48.400;10.808;2024-02-15T00:02:54;8.00;83.50
38514;DHT22;24282;48.400;10.808;2024-02-15T00:05:19;8.00;83.60
38514;DHT22;24282;48.400;10.808;2024-02-15T00:07:45;7.90;83.60
38514;DHT22;24282;48.400;10.808;2024-02-15T00:10:14;7.90;83.50
38514;DHT22;24282;48.400;10.808;2024-02-15T00:12:41;7.90;83.50
38514;DHT22;24282;48.400;10.808;2024-02-15T00:15:07;7.80;83.50
38514;DHT22;24282;48.400;10.808;2024-02-15T00:17:33;7.70;83.40
38514;DHT22;24282;48.400;10.808;2024-02-15T00:20:00;7.70;83.40
38514;DHT22;24282;48.400;10.808;2024-02-15T00:22:26;7.60;83.30
38514;DHT22;24282;48.400;10.808;2024-02-15T00:24:52;7.60;83.30
38514;DHT22;24282;48.400;10.808;2024-02-15T00:27:19;7.60;83.30
38514;DHT22;24282;48.400;10.808;2024-02-15T00:29:45;7.50;83.30
38514;DHT22;24282;48.400;10.808;2024-02-15T00:32:11;7.50;83.40
38514;DHT22;24282;48.400;10.808;2024-02-15T00:34:37;7.40;83.40
38514;DHT22;24282;48.400;10.808;2024-02-15T00:37:05;7.40;83.50
38514;DHT22;24282;48.400;10.808;2024-02-15T00:39:32;7.40;83.50
38514;DHT22;24282;48.400;10.808;2024-02-15T00:41:58;7.40;83.60
38514;DHT22;24282;48.400;10.808;2024-02-15T00:44:26;7.40;83.80
38514;DHT22;24282;48.400;10.808;2024-02-15T00:46:52;7.40;83.90
38514;DHT22;24282;48.400;10.808;2024-02-15T00:49:18;7.30;83.90
38514;DHT22;24282;48.400;10.808;2024-02-15T00:51:46;7.40;84.00
38514;DHT22;24282;48.400;10.808;2024-02-15T00:54:12;7.40;84.00
38514;DHT22;24282;48.400;10.808;2024-02-15T00:56:37;7.30;84.10
38514;DHT22;24282;48.400;10.808;2024-02-15T00:59:03;7.30;84.10
38514;DHT22;24282;48.400;10.808;2024-02-15T01:01:30;7.30;84.20
38514;DHT22;24282;48.400;10.808;2024-02-15T01:03:56;7.30;84.20
38514;DHT22;24282;48.400;10.808;2024-02-15T01:06:22;7.30;84.30
38514;DHT22;24282;48.400;10.808;2024-02-15T01:08:48;7.30;84.30
38514;DHT22;24282;48.400;10.808;2024-02-15T01:11:14;7.40;84.40
38514;DHT22;24282;48.400;10.808;2024-02-15T01:13:40;7.30;84.40
38514;DHT22;24282;48.400;10.808;2024-02-15T01:16:07;7.30;84.50
38514;DHT22;24282;48.400;10.808;2024-02-15T01:18:33;7.40;84.60
38514;DHT22;24282;48.400;10.808;2024-02-15T01:20:59;7.40;84.70
38514;DHT22;24282;48.400;10.808;2024-02-15T01:23:24;7.40;84.80
38514;DHT22;24282;48.400;10.808;2024-02-15T01:25:52;7.40;84.90
38514;DHT22;24282;48.400;10.808;2024-02-15T01:28:18;7.40;84.90
38514;DHT22;24282;48.400;10.808;2024-02-15T01:30:43;7.40;84.90
38514;DHT22;24282;48.400;10.808;2024-02-15T01:33:10;7.30;84.70
38514;DHT22;24282;48.400;10.808;2024-02-15T01:35:37;7.30;84.50
38514;DHT22;24282;48.400;10.808;2024-02-15T01:38:03;7.40;84.40
38514;DHT22;24282;48.400;10.808;2024-02-15T01:40:29;7.40;84.30
38514;DHT22;24282;48.400;10.808;2024-02-15T01:42:55;7.30;84.30
38514;DHT22;24282;48.400;10.808;2024-02-15T01:45:21;7.30;84.40
38514;DHT22;24282;48.400;10.808;2024-02-15T01:47:48;7.30;84.50
38514;DHT22;24282;48.400;10.808;2024-02-15T01:50:15;7.30;84.60
38514;DHT22;24282;48.400;10.808;2024-02-15T01:52:42;7.30;84.70
38514;DHT22;24282;48.400;10.808;2024-02-15T01:55:09;7.30;84.70
38514;DHT22;24282;48.400;10.808;2024-02-15T01:57:35;7.20;84.70
38514;DHT22;24282;48.400;10.808;2024-02-15T02:00:04;7.20;84.80
38514;DHT22;24282;48.400;10.808;2024-02-15T02:02:35;7.30;84.80
38514;DHT22;24282;48.400;10.808;2024-02-15T02:05:01;7.30;84.80
38514;DHT22;24282;48.400;10.808;2024-02-15T02:07:28;7.30;84.80
38514;DHT22;24282;48.400;10.808;2024-02-15T02:09:54;7.30;84.80
38514;DHT22;24282;48.400;10.808;2024-02-15T02:12:19;7.30;84.80
38514;DHT22;24282;48.400;10.808;2024-02-15T02:14:45;7.30;84.90
38514;DHT22;24282;48.400;10.808;2024-02-15T02:17:14;7.40;85.00
38514;DHT22;24282;48.400;10.808;2024-02-15T02:19:41;7.30;85.10
38514;DHT22;24282;48.400;10.808;2024-02-15T02:22:09;7.40;85.20
38514;DHT22;24282;48.400;10.808;2024-02-15T02:25:23;7.40;85.20
38514;DHT22;24282;48.400;10.808;2024-02-15T02:27:26;7.40;85.30
38514;DHT22;24282;48.400;10.808;2024-02-15T02:29:53;7.40;85.40
38514;DHT22;24282;48.400;10.808;2024-02-15T02:32:19;7.40;85.40
38514;DHT22;24282;48.400;10.808;2024-02-15T02:34:45;7.50;85.40
38514;DHT22;24282;48.400;10.808;2024-02-15T02:37:10;7.50;85.40
38514;DHT22;24282;48.400;10.808;2024-02-15T02:39:37;7.50;85.40
38514;DHT22;24282;48.400;10.808;2024-02-15T02:42:03;7.50;85.40
38514;DHT22;24282;48.400;10.808;2024-02-15T02:44:29;7.50;85.40
38514;DHT22;24282;48.400;10.808;2024-02-15T02:46:55;7.50;85.60
38514;DHT22;24282;48.400;10.808;2024-02-15T02:49:21;7.50;85.70
38514;DHT22;24282;48.400;10.808;2024-02-15T02:51:47;7.50;85.70
38514;DHT22;24282;48.400;10.808;2024-02-15T02:54:13;7.50;85.70
38514;DHT22;24282;48.400;10.808;2024-02-15T02:56:40;7.50;85.60
38514;DHT22;24282;48.400;10.808;2024-02-15T02:59:09;7.60;85.60
38514;DHT22;24282;48.400;10.808;2024-02-15T03:01:35;7.50;85.50
38514;DHT22;24282;48.400;10.808;2024-02-15T03:04:01;7.60;85.60
38514;DHT22;24282;48.400;10.808;2024-02-15T03:06:26;7.60;85.50
38514;DHT22;24282;48.400;10.808;2024-02-15T03:08:53;7.50;85.50
38514;DHT22;24282;48.400;10.808;2024-02-15T03:11:23;7.60;85.50
38514;DHT22;24282;48.400;10.808;2024-02-15T03:13:49;7.50;85.50
38514;DHT22;24282;48.400;10.808;2024-02-15T03:16:14;7.50;85.40
38514;DHT22;24282;48.400;10.808;2024-02-15T03:18:42;7.50;85.40
38514;DHT22;24282;48.400;10.808;2024-02-15T03:21:08;7.50;85.30
38514;DHT22;24282;48.400;10.808;2024-02-15T03:23:37;7.40;85.20
38514;DHT22;24282;48.400;10.808;2024-02-15T03:26:03;7.40;85.20
38514;DHT22;24282;48.400;10.808;2024-02-15T03:28:31;7.30;85.10
38514;DHT22;24282;48.400;10.808;2024-02-15T03:30:57;7.20;85.10
38514;DHT22;24282;48.400;10.808;2024-02-15T03:33:26;7.20;85.10
38514;DHT22;24282;48.400;10.808;2024-02-15T03:35:58;7.10;85.10
38514;DHT22;24282;48.400;10.808;2024-02-15T03:38:27;7.10;85.10
38514;DHT22;24282;48.400;10.808;2024-02-15T03:40:55;7.10;85.00
38514;DHT22;24282;48.400;10.808;2024-02-15T03:43:21;7.00;85.10
38514;DHT22;24282;48.400;10.808;2024-02-15T03:45:49;7.00;85.20
38514;DHT22;24282;48.400;10.808;2024-02-15T03:48:15;7.00;85.30
38514;DHT22;24282;48.400;10.808;2024-02-15T03:50:41;7.00;85.30
38514;DHT22;24282;48.400;10.808;2024-02-15T03:53:09;7.00;85.40
38514;DHT22;24282;48.400;10.808;2024-02-15T03:55:36;7.00;85.40
38514;DHT22;24282;48.400;10.808;2024-02-15T03:58:02;6.90;85.30
38514;DHT22;24282;48.400;10.808;2024-02-15T04:00:28;6.90;85.30
38514;DHT22;24282;48.400;10.808;2024-02-15T04:02:54;6.90;85.40
38514;DHT22;24282;48.400;10.808;2024-02-15T04:05:20;6.90;85.50
38514;DHT22;24282;48.400;10.808;2024-02-15T04:07:47;6.90;85.60
38514;DHT22;24282;48.400;10.808;2024-02-15T04:10:14;6.80;85.60
38514;DHT22;24282;48.400;10.808;2024-02-15T04:12:39;6.80;85.60
38514;DHT22;24282;48.400;10.808;2024-02-15T04:15:07;6.80;85.70
38514;DHT22;24282;48.400;10.808;2024-02-15T04:17:43;6.80;85.80
38514;DHT22;24282;48.400;10.808;2024-02-15T04:20:11;6.80;85.70
38514;DHT22;24282;48.400;10.808;2024-02-15T04:22:37;6.80;85.70
38514;DHT22;24282;48.400;10.808;2024-02-15T04:25:05;6.80;85.70
38514;DHT22;24282;48.400;10.808;2024-02-15T04:27:32;6.70;85.60
38514;DHT22;24282;48.400;10.808;2024-02-15T04:29:58;6.70;85.30
38514;DHT22;24282;48.400;10.808;2024-02-15T04:32:23;6.70;85.20
38514;DHT22;24282;48.400;10.808;2024-02-15T04:34:49;6.60;84.90
38514;DHT22;24282;48.400;10.808;2024-02-15T04:37:15;6.50;84.60
38514;DHT22;24282;48.400;10.808;2024-02-15T04:39:42;6.50;84.30
38514;DHT22;24282;48.400;10.808;2024-02-15T04:42:08;6.40;84.20
38514;DHT22;24282;48.400;10.808;2024-02-15T04:44:40;6.40;84.00
38514;DHT22;24282;48.400;10.808;2024-02-15T04:47:06;6.30;84.00
38514;DHT22;24282;48.400;10.808;2024-02-15T04:49:35;6.30;84.00
38514;DHT22;24282;48.400;10.808;2024-02-15T04:52:04;6.20;84.10
38514;DHT22;24282;48.400;10.808;2024-02-15T04:54:30;6.20;84.30
38514;DHT22;24282;48.400;10.808;2024-02-15T04:56:58;6.20;84.40
38514;DHT22;24282;48.400;10.808;2024-02-15T04:59:24;6.10;84.40
38514;DHT22;24282;48.400;10.808;2024-02-15T05:01:54;6.20;84.40
38514;DHT22;24282;48.400;10.808;2024-02-15T05:04:22;6.10;84.60
38514;DHT22;24282;48.400;10.808;2024-02-15T05:06:50;6.20;84.80
38514;DHT22;24282;48.400;10.808;2024-02-15T05:09:16;6.20;85.10
38514;DHT22;24282;48.400;10.808;2024-02-15T05:11:44;6.10;85.10
38514;DHT22;24282;48.400;10.808;2024-02-15T05:14:15;6.10;84.80
38514;DHT22;24282;48.400;10.808;2024-02-15T05:16:49;6.10;84.40
38514;DHT22;24282;48.400;10.808;2024-02-15T05:19:18;6.10;84.20
38514;DHT22;24282;48.400;10.808;2024-02-15T05:21:45;6.00;84.10
38514;DHT22;24282;48.400;10.808;2024-02-15T05:24:15;6.00;83.90
38514;DHT22;24282;48.400;10.808;2024-02-15T05:26:42;6.00;83.90
38514;DHT22;24282;48.400;10.808;2024-02-15T05:29:14;5.90;83.90
38514;DHT22;24282;48.400;10.808;2024-02-15T05:31:41;5.90;83.90
38514;DHT22;24282;48.400;10.808;2024-02-15T05:34:07;5.80;83.50
38514;DHT22;24282;48.400;10.808;2024-02-15T05:36:34;5.80;83.20
38514;DHT22;24282;48.400;10.808;2024-02-15T05:39:00;5.70;82.80
38514;DHT22;24282;48.400;10.808;2024-02-15T05:41:28;5.70;82.70
38514;DHT22;24282;48.400;10.808;2024-02-15T05:43:55;5.70;82.60
38514;DHT22;24282;48.400;10.808;2024-02-15T05:46:23;5.60;82.40
38514;DHT22;24282;48.400;10.808;2024-02-15T05:48:49;5.50;82.50
38514;DHT22;24282;48.400;10.808;2024-02-15T05:51:16;5.50;82.70
38514;DHT22;24282;48.400;10.808;2024-02-15T05:53:43;5.40;82.70
38514;DHT22;24282;48.400;10.808;2024-02-15T05:56:09;5.40;82.70
38514;DHT22;24282;48.400;10.808;2024-02-15T05:58:39;5.40;82.70
38514;DHT22;24282;48.400;10.808;2024-02-15T06:01:08;5.30;82.70
38514;DHT22;24282;48.400;10.808;2024-02-15T06:03:37;5.30;82.80
38514;DHT22;24282;48.400;10.808;2024-02-15T06:06:05;5.20;82.70
38514;DHT22;24282;48.400;10.808;2024-02-15T06:08:35;5.20;82.60
38514;DHT22;24282;48.400;10.808;2024-02-15T06:11:01;5.10;82.70
38514;DHT22;24282;48.400;10.808;2024-02-15T06:13:31;5.10;83.00
38514;DHT22;24282;48.400;10.808;2024-02-15T06:15:57;5.10;83.00
38514;DHT22;24282;48.400;10.808;2024-02-15T06:18:27;5.10;83.20
38514;DHT22;24282;48.400;10.808;2024-02-15T06:20:58;5.10;83.40
38514;DHT22;24282;48.400;10.808;2024-02-15T06:23:25;5.00;83.40
38514;DHT22;24282;48.400;10.808;2024-02-15T06:25:54;5.00;83.50
38514;DHT22;24282;48.400;10.808;2024-02-15T06:28:20;5.00;83.50
38514;DHT22;24282;48.400;10.808;2024-02-15T06:31:06;5.00;83.60
38514;DHT22;24282;48.400;10.808;2024-02-15T06:33:51;5.00;83.60
38514;DHT22;24282;48.400;10.808;2024-02-15T06:36:49;5.00;83.50
38514;DHT22;24282;48.400;10.808;2024-02-15T06:39:33;5.00;83.50
38514;DHT22;24282;48.400;10.808;2024-02-15T06:42:15;5.10;83.30
38514;DHT22;24282;48.400;10.808;2024-02-15T06:44:47;5.00;83.20
38514;DHT22;24282;48.400;10.808;2024-02-15T06:47:13;5.00;83.30
38514;DHT22;24282;48.400;10.808;2024-02-15T06:49:42;5.00;83.30
38514;DHT22;24282;48.400;10.808;2024-02-15T06:52:10;5.00;83.30
38514;DHT22;24282;48.400;10.808;2024-02-15T06:54:40;4.90;83.50
38514;DHT22;24282;48.400;10.808;2024-02-15T06:57:06;5.00;83.60
38514;DHT22;24282;48.400;10.808;2024-02-15T06:59:32;4.90;83.70
38514;DHT22;24282;48.400;10.808;2024-02-15T07:02:01;5.00;83.90
38514;DHT22;24282;48.400;10.808;2024-02-15T07:04:30;4.90;84.00
38514;DHT22;24282;48.400;10.808;2024-02-15T07:06:57;5.00;84.00
38514;DHT22;24282;48.400;10.808;2024-02-15T07:09:23;5.00;84.00
38514;DHT22;24282;48.400;10.808;2024-02-15T07:11:53;5.00;84.00
38514;DHT22;24282;48.400;10.808;2024-02-15T07:14:18;5.00;83.90
38514;DHT22;24282;48.400;10.808;2024-02-15T07:16:46;5.00;84.00
38514;DHT22;24282;48.400;10.808;2024-02-15T07:19:12;4.90;84.10
38514;DHT22;24282;48.400;10.808;2024-02-15T07:21:38;5.00;84.30
38514;DHT22;24282;48.400;10.808;2024-02-15T07:24:05;5.00;84.50
38514;DHT22;24282;48.400;10.808;2024-02-15T07:26:31;5.00;84.40
38514;DHT22;24282;48.400;10.808;2024-02-15T07:28:56;5.00;84.20
38514;DHT22;24282;48.400;10.808;2024-02-15T07:31:27;5.00;84.20
38514;DHT22;24282;48.400;10.808;2024-02-15T07:33:53;5.00;84.30
38514;DHT22;24282;48.400;10.808;2024-02-15T07:36:22;5.00;84.30
38514;DHT22;24282;48.400;10.808;2024-02-15T07:38:49;5.10;84.30
38514;DHT22;24282;48.400;10.808;2024-02-15T07:41:17;5.10;84.30
38514;DHT22;24282;48.400;10.808;2024-02-15T07:43:45;5.10;84.30
38514;DHT22;24282;48.400;10.808;2024-02-15T07:46:13;5.10;84.30
38514;DHT22;24282;48.400;10.808;2024-02-15T07:48:39;5.10;84.40
38514;DHT22;24282;48.400;10.808;2024-02-15T07:51:13;5.10;84.50
38514;DHT22;24282;48.400;10.808;2024-02-15T07:53:41;5.10;84.50
38514;DHT22;24282;48.400;10.808;2024-02-15T07:56:08;5.20;84.70
38514;DHT22;24282;48.400;10.808;2024-02-15T07:58:38;5.20;84.80
38514;DHT22;24282;48.400;10.808;2024-02-15T08:01:07;5.20;85.00
38514;DHT22;24282;48.400;10.808;2024-02-15T08:03:33;5.40;85.10
38514;DHT22;24282;48.400;10.808;2024-02-15T08:06:01;5.40;85.20
38514;DHT22;24282;48.400;10.808;2024-02-15T08:08:32;5.50;85.30
38514;DHT22;24282;48.400;10.808;2024-02-15T08:11:01;5.50;85.40
38514;DHT22;24282;48.400;10.808;2024-02-15T08:13:28;5.60;85.40
38514;DHT22;24282;48.400;10.808;2024-02-15T08:15:55;5.70;85.50
38514;DHT22;24282;48.400;10.808;2024-02-15T08:18:21;5.70;85.50
38514;DHT22;24282;48.400;10.808;2024-02-15T08:20:47;5.80;85.50
38514;DHT22;24282;48.400;10.808;2024-02-15T08:23:13;5.90;85.30
38514;DHT22;24282;48.400;10.808;2024-02-15T08:25:39;6.00;85.20
38514;DHT22;24282;48.400;10.808;2024-02-15T08:28:07;6.00;85.20
38514;DHT22;24282;48.400;10.808;2024-02-15T08:30:33;6.10;85.20
38514;DHT22;24282;48.400;10.808;2024-02-15T08:32:59;6.10;85.10
38514;DHT22;24282;48.400;10.808;2024-02-15T08:35:24;6.10;85.20
38514;DHT22;24282;48.400;10.808;2024-02-15T08:37:50;6.20;85.30
38514;DHT22;24282;48.400;10.808;2024-02-15T08:40:18;6.20;85.20
38514;DHT22;24282;48.400;10.808;2024-02-15T08:42:50;6.20;85.20
38514;DHT22;24282;48.400;10.808;2024-02-15T08:45:16;6.30;85.10
38514;DHT22;24282;48.400;10.808;2024-02-15T08:47:42;6.40;85.00
38514;DHT22;24282;48.400;10.808;2024-02-15T08:50:09;6.50;84.90
38514;DHT22;24282;48.400;10.808;2024-02-15T08:52:39;6.60;84.70
38514;DHT22;24282;48.400;10.808;2024-02-15T08:55:05;6.70;84.70
38514;DHT22;24282;48.400;10.808;2024-02-15T08:57:33;6.90;84.30
38514;DHT22;24282;48.400;10.808;2024-02-15T08:59:59;7.10;83.70
38514;DHT22;24282;48.400;10.808;2024-02-15T09:02:25;7.40;83.10
38514;DHT22;24282;48.400;10.808;2024-02-15T09:04:50;7.70;82.00
38514;DHT22;24282;48.400;10.808;2024-02-15T09:07:16;7.90;80.90
38514;DHT22;24282;48.400;10.808;2024-02-15T09:09:42;8.20;79.80
38514;DHT22;24282;48.400;10.808;2024-02-15T09:12:08;8.40;79.30
38514;DHT22;24282;48.400;10.808;2024-02-15T09:14:34;8.60;78.70
38514;DHT22;24282;48.400;10.808;2024-02-15T09:17:03;8.90;77.60
38514;DHT22;24282;48.400;10.808;2024-02-15T09:19:35;9.10;76.90
38514;DHT22;24282;48.400;10.808;2024-02-15T09:22:05;9.20;76.30
38514;DHT22;24282;48.400;10.808;2024-02-15T09:24:32;9.20;76.30
38514;DHT22;24282;48.400;10.808;2024-02-15T09:27:01;9.40;76.40
38514;DHT22;24282;48.400;10.808;2024-02-15T09:29:28;9.40;75.70
38514;DHT22;24282;48.400;10.808;2024-02-15T09:31:56;9.40;76.00
38514;DHT22;24282;48.400;10.808;2024-02-15T09:34:23;9.40;76.20
38514;DHT22;24282;48.400;10.808;2024-02-15T09:36:49;9.40;76.30
38514;DHT22;24282;48.400;10.808;2024-02-15T09:39:15;9.40;76.50
38514;DHT22;24282;48.400;10.808;2024-02-15T09:41:41;9.40;76.60
38514;DHT22;24282;48.400;10.808;2024-02-15T09:44:08;9.50;76.30
38514;DHT22;24282;48.400;10.808;2024-02-15T09:46:43;9.50;75.30
38514;DHT22;24282;48.400;10.808;2024-02-15T09:49:12;9.50;75.90
38514;DHT22;24282;48.400;10.808;2024-02-15T09:51:40;9.60;75.70
38514;DHT22;24282;48.400;10.808;2024-02-15T09:54:08;9.70;75.10
38514;DHT22;24282;48.400;10.808;2024-02-15T09:56:35;9.70;75.20
38514;DHT22;24282;48.400;10.808;2024-02-15T09:59:01;9.70;75.40
38514;DHT22;24282;48.400;10.808;2024-02-15T10:01:31;9.80;75.20
38514;DHT22;24282;48.400;10.808;2024-02-15T10:03:58;9.80;75.80
38514;DHT22;24282;48.400;10.808;2024-02-15T10:06:25;9.90;75.70
38514;DHT22;24282;48.400;10.808;2024-02-15T10:08:52;9.90;76.30
38514;DHT22;24282;48.400;10.808;2024-02-15T10:11:19;10.00;76.80
38514;DHT22;24282;48.400;10.808;2024-02-15T10:13:46;10.00;76.20
38514;DHT22;24282;48.400;10.808;2024-02-15T10:16:19;10.10;75.50
38514;DHT22;24282;48.400;10.808;2024-02-15T10:18:50;10.20;75.80
38514;DHT22;24282;48.400;10.808;2024-02-15T10:21:26;10.20;75.40
38514;DHT22;24282;48.400;10.808;2024-02-15T10:24:08;10.30;75.20
38514;DHT22;24282;48.400;10.808;2024-02-15T10:26:34;10.40;75.80
38514;DHT22;24282;48.400;10.808;2024-02-15T10:29:11;10.40;75.50
38514;DHT22;24282;48.400;10.808;2024-02-15T10:31:38;10.40;75.30
38514;DHT22;24282;48.400;10.808;2024-02-15T10:34:06;10.50;75.60
38514;DHT22;24282;48.400;10.808;2024-02-15T10:36:33;10.60;75.80
38514;DHT22;24282;48.400;10.808;2024-02-15T10:39:12;10.60;75.50
38514;DHT22;24282;48.400;10.808;2024-02-15T10:41:50;10.70;75.10
38514;DHT22;24282;48.400;10.808;2024-02-15T10:44:24;10.80;75.40
38514;DHT22;24282;48.400;10.808;2024-02-15T10:46:52;10.70;75.30
38514;DHT22;24282;48.400;10.808;2024-02-15T10:49:23;10.80;75.30
38514;DHT22;24282;48.400;10.808;2024-02-15T10:51:56;10.80;74.80
38514;DHT22;24282;48.400;10.808;2024-02-15T10:54:46;10.80;74.80
38514;DHT22;24282;48.400;10.808;2024-02-15T10:57:13;10.90;74.80
38514;DHT22;24282;48.400;10.808;2024-02-15T11:00:08;11.00;75.60
38514;DHT22;24282;48.400;10.808;2024-02-15T11:05:37;11.10;74.10
38514;DHT22;24282;48.400;10.808;2024-02-15T11:08:10;11.10;74.00
38514;DHT22;24282;48.400;10.808;2024-02-15T11:10:38;11.20;74.10
38514;DHT22;24282;48.400;10.808;2024-02-15T11:13:04;11.20;74.20
38514;DHT22;24282;48.400;10.808;2024-02-15T11:18:07;11.40;74.00
38514;DHT22;24282;48.400;10.808;2024-02-15T11:22:59;11.50;73.80
38514;DHT22;24282;48.400;10.808;2024-02-15T11:25:35;11.60;74.50
38514;DHT22;24282;48.400;10.808;2024-02-15T11:30:53;11.70;73.90
38514;DHT22;24282;48.400;10.808;2024-02-15T11:33:32;11.90;73.50
38514;DHT22;24282;48.400;10.808;2024-02-15T11:38:32;12.10;72.70
38514;DHT22;24282;48.400;10.808;2024-02-15T11:41:05;12.20;71.90
38514;DHT22;24282;48.400;10.808;2024-02-15T11:46:16;12.40;70.80
38514;DHT22;24282;48.400;10.808;2024-02-15T11:48:48;12.50;70.20
38514;DHT22;24282;48.400;10.808;2024-02-15T11:51:34;12.40;70.70
38514;DHT22;24282;48.400;10.808;2024-02-15T11:54:09;12.40;71.00
38514;DHT22;24282;48.400;10.808;2024-02-15T11:59:13;12.40;70.40
38514;DHT22;24282;48.400;10.808;2024-02-15T12:01:57;12.40;70.40
38514;DHT22;24282;48.400;10.808;2024-02-15T12:04:52;12.50;71.00
38514;DHT22;24282;48.400;10.808;2024-02-15T12:07:36;12.60;70.60
38514;DHT22;24282;48.400;10.808;2024-02-15T12:10:20;12.80;70.00
38514;DHT22;24282;48.400;10.808;2024-02-15T12:13:05;12.90;69.30
38514;DHT22;24282;48.400;10.808;2024-02-15T12:15:59;13.10;68.90
38514;DHT22;24282;48.400;10.808;2024-02-15T12:18:44;13.30;68.60
38514;DHT22;24282;48.400;10.808;2024-02-15T12:21:16;13.40;68.30
38514;DHT22;24282;48.400;10.808;2024-02-15T12:23:43;13.60;67.50
38514;DHT22;24282;48.400;10.808;2024-02-15T12:26:08;13.70;68.00
38514;DHT22;24282;48.400;10.808;2024-02-15T12:28:34;13.80;67.70
38514;DHT22;24282;48.400;10.808;2024-02-15T12:31:01;13.90;67.00
38514;DHT22;24282;48.400;10.808;2024-02-15T12:33:27;13.90;65.60
38514;DHT22;24282;48.400;10.808;2024-02-15T12:36:06;14.00;64.90
38514;DHT22;24282;48.400;10.808;2024-02-15T12:38:32;14.10;63.80
38514;DHT22;24282;48.400;10.808;2024-02-15T12:41:00;14.20;64.20
38514;DHT22;24282;48.400;10.808;2024-02-15T12:43:28;14.20;63.70
38514;DHT22;24282;48.400;10.808;2024-02-15T12:45:54;14.20;64.00
38514;DHT22;24282;48.400;10.808;2024-02-15T12:48:22;14.30;63.70
38514;DHT22;24282;48.400;10.808;2024-02-15T12:50:48;14.20;64.30
38514;DHT22;24282;48.400;10.808;2024-02-15T12:53:21;14.30;64.00
38514;DHT22;24282;48.400;10.808;2024-02-15T12:55:52;14.20;64.40
38514;DHT22;24282;48.400;10.808;2024-02-15T12:58:20;14.20;64.10
38514;DHT22;24282;48.400;10.808;2024-02-15T13:00:46;14.20;64.30
38514;DHT22;24282;48.400;10.808;2024-02-15T13:03:12;14.20;63.90
38514;DHT22;24282;48.400;10.808;2024-02-15T13:05:40;14.20;64.00
38514;DHT22;24282;48.400;10.808;2024-02-15T13:08:06;14.10;64.00
38514;DHT22;24282;48.400;10.808;2024-02-15T13:10:36;14.20;64.40
38514;DHT22;24282;48.400;10.808;2024-02-15T13:13:02;14.20;64.90
38514;DHT22;24282;48.400;10.808;2024-02-15T13:15:28;14.20;64.50
38514;DHT22;24282;48.400;10.808;2024-02-15T13:17:59;14.30;64.30
38514;DHT22;24282;48.400;10.808;2024-02-15T13:20:26;14.30;64.00
38514;DHT22;24282;48.400;10.808;2024-02-15T13:23:07;14.30;64.00
38514;DHT22;24282;48.400;10.808;2024-02-15T13:25:49;14.30;63.30
38514;DHT22;24282;48.400;10.808;2024-02-15T13:28:15;14.30;64.20
38514;DHT22;24282;48.400;10.808;2024-02-15T13:30:41;14.40;64.50
38514;DHT22;24282;48.400;10.808;2024-02-15T13:33:13;14.30;64.30
38514;DHT22;24282;48.400;10.808;2024-02-15T13:35:39;14.30;64.30
38514;DHT22;24282;48.400;10.808;2024-02-15T13:38:05;14.40;63.40
38514;DHT22;24282;48.400;10.808;2024-02-15T13:40:30;14.40;63.40
38514;DHT22;24282;48.400;10.808;2024-02-15T13:42:58;14.40;63.40
38514;DHT22;24282;48.400;10.808;2024-02-15T13:45:29;14.40;63.10
38514;DHT22;24282;48.400;10.808;2024-02-15T13:47:58;14.40;62.50
38514;DHT22;24282;48.400;10.808;2024-02-15T13:50:24;14.30;62.60
38514;DHT22;24282;48.400;10.808;2024-02-15T13:52:50;14.20;62.00
38514;DHT22;24282;48.400;10.808;2024-02-15T13:55:17;14.20;62.60
38514;DHT22;24282;48.400;10.808;2024-02-15T13:57:47;14.00;63.30
38514;DHT22;24282;48.400;10.808;2024-02-15T14:00:16;14.00;62.90
38514;DHT22;24282;48.400;10.808;2024-02-15T14:02:53;14.00;62.90
38514;DHT22;24282;48.400;10.808;2024-02-15T14:05:19;13.90;63.00
38514;DHT22;24282;48.400;10.808;2024-02-15T14:07:49;13.90;63.10
38514;DHT22;24282;48.400;10.808;2024-02-15T14:10:16;13.90;63.20
38514;DHT22;24282;48.400;10.808;2024-02-15T14:12:45;13.90;63.70
38514;DHT22;24282;48.400;10.808;2024-02-15T14:15:11;13.90;64.20
38514;DHT22;24282;48.400;10.808;2024-02-15T14:17:37;13.90;63.10
38514;DHT22;24282;48.400;10.808;2024-02-15T14:20:04;13.90;62.90
38514;DHT22;24282;48.400;10.808;2024-02-15T14:22:34;13.80;62.80
38514;DHT22;24282;48.400;10.808;2024-02-15T14:25:01;13.80;62.40
38514;DHT22;24282;48.400;10.808;2024-02-15T14:27:27;13.80;62.70
38514;DHT22;24282;48.400;10.808;2024-02-15T14:29:52;13.80;62.90
38514;DHT22;24282;48.400;10.808;2024-02-15T14:32:37;13.70;63.10
38514;DHT22;24282;48.400;10.808;2024-02-15T14:35:21;13.70;64.20
38514;DHT22;24282;48.400;10.808;2024-02-15T14:37:47;13.70;64.70
38514;DHT22;24282;48.400;10.808;2024-02-15T14:40:13;13.70;64.20
38514;DHT22;24282;48.400;10.808;2024-02-15T14:42:40;13.70;64.50
38514;DHT22;24282;48.400;10.808;2024-02-15T14:45:09;13.60;64.90
38514;DHT22;24282;48.400;10.808;2024-02-15T14:47:35;13.60;64.70
38514;DHT22;24282;48.400;10.808;2024-02-15T14:50:02;13.60;64.70
38514;DHT22;24282;48.400;10.808;2024-02-15T14:52:28;13.50;65.20
38514;DHT22;24282;48.400;10.808;2024-02-15T14:54:53;13.50;65.10
38514;DHT22;24282;48.400;10.808;2024-02-15T14:57:19;13.50;63.90
38514;DHT22;24282;48.400;10.808;2024-02-15T14:59:45;13.50;63.80
38514;DHT22;24282;48.400;10.808;2024-02-15T15:02:11;13.50;64.40
38514;DHT22;24282;48.400;10.808;2024-02-15T15:04:37;13.40;64.60
38514;DHT22;24282;48.400;10.808;2024-02-15T15:07:22;13.40;64.30
38514;DHT22;24282;48.400;10.808;2024-02-15T15:10:07;13.40;64.60
38514;DHT22;24282;48.400;10.808;2024-02-15T15:12:51;13.30;64.70
38514;DHT22;24282;48.400;10.808;2024-02-15T15:15:17;13.30;65.10
38514;DHT22;24282;48.400;10.808;2024-02-15T15:17:45;13.30;65.30
38514;DHT22;24282;48.400;10.808;2024-02-15T15:20:12;13.20;65.60
38514;DHT22;24282;48.400;10.808;2024-02-15T15:22:38;13.20;66.00
38514;DHT22;24282;48.400;10.808;2024-02-15T15:25:04;13.20;65.90
38514;DHT22;24282;48.400;10.808;2024-02-15T15:27:30;13.10;65.50
38514;DHT22;24282;48.400;10.808;2024-02-15T15:29:57;13.10;65.60
38514;DHT22;24282;48.400;10.808;2024-02-15T15:32:22;13.10;65.60
38514;DHT22;24282;48.400;10.808;2024-02-15T15:34:48;13.00;66.50
38514;DHT22;24282;48.400;10.808;2024-02-15T15:37:14;13.00;66.70
38514;DHT22;24282;48.400;10.808;2024-02-15T15:39:41;13.00;66.70
38514;DHT22;24282;48.400;10.808;2024-02-15T15:42:07;12.90;67.30
38514;DHT22;24282;48.400;10.808;2024-02-15T15:44:33;12.80;68.00
38514;DHT22;24282;48.400;10.808;2024-02-15T15:46:59;12.80;68.70
38514;DHT22;24282;48.400;10.808;2024-02-15T15:49:26;12.70;69.40
38514;DHT22;24282;48.400;10.808;2024-02-15T15:51:51;12.60;69.70